Time;durP1;ratioP1;P1;durP2;ratioP2;P2;SDS_P1;SDS_P2;PMS_P1;PMS_P2;Temp;Humidity;BMP_temperature;BMP_pressure;BME280_temperature;BME280_humidity;BME280_pressure;Samples;Min_cycle;Max_cycle;Signal;HPM_P1;HPM_P2
2023/09/11 00:01:54;;;;;;;25.83;16.05;;;17.90;99.90;;;;;;5084224;28;20638;-71
2023/09/11 00:04:21;;;;;;;27.08;16.63;;;18.00;99.90;;;;;;5089184;28;20082;-71
2023/09/11 00:06:47;;;;;;;27.42;17.67;;;18.00;99.90;;;;;;5089102;28;20114;-70
2023/09/11 00:09:12;;;;;;;24.13;16.33;;;18.10;99.90;;;;;;5088087;28;20066;-71
2023/09/11 00:11:39;;;;;;;28.55;16.55;;;18.10;99.90;;;;;;5087318;28;20063;-72
2023/09/11 00:14:04;;;;;;;30.40;16.95;;;18.10;99.90;;;;;;5089496;28;20805;-71
2023/09/11 00:16:30;;;;;;;23.45;15.45;;;18.00;99.90;;;;;;5089230;28;20046;-71
2023/09/11 00:18:56;;;;;;;24.10;15.73;;;18.00;99.90;;;;;;5088030;28;20024;-71
2023/09/11 00:21:23;;;;;;;28.48;15.80;;;18.00;99.90;;;;;;5089469;28;20514;-71
2023/09/11 00:23:49;;;;;;;23.77;15.15;;;17.90;99.90;;;;;;5086007;28;20051;-72
2023/09/11 00:26:15;;;;;;;24.00;14.70;;;17.80;99.90;;;;;;5088241;28;20043;-71
2023/09/11 00:28:40;;;;;;;23.77;15.15;;;17.70;99.90;;;;;;5086972;28;20044;-72
2023/09/11 00:31:06;;;;;;;24.38;14.70;;;17.70;99.90;;;;;;5070399;28;20032;-71
2023/09/11 00:33:32;;;;;;;22.83;15.07;;;17.70;99.90;;;;;;5088107;28;20072;-71
2023/09/11 00:35:57;;;;;;;24.95;15.95;;;17.70;99.90;;;;;;5086513;28;20035;-71
2023/09/11 00:38:23;;;;;;;26.60;16.05;;;17.60;99.90;;;;;;5086256;28;20085;-71
2023/09/11 00:40:48;;;;;;;25.58;16.13;;;17.70;99.90;;;;;;5086876;28;20025;-71
2023/09/11 00:43:14;;;;;;;29.67;17.30;;;17.70;99.90;;;;;;5087193;28;20121;-71
2023/09/11 00:45:40;;;;;;;27.00;15.60;;;17.60;99.90;;;;;;5086154;28;20032;-70
2023/09/11 00:48:06;;;;;;;26.77;16.50;;;17.70;99.90;;;;;;5087356;28;20059;-70
2023/09/11 00:50:32;;;;;;;28.33;17.48;;;17.70;99.90;;;;;;5082578;28;20023;-71
2023/09/11 00:52:58;;;;;;;28.90;16.77;;;17.70;99.90;;;;;;5082418;28;20085;-70
2023/09/11 00:55:24;;;;;;;26.92;15.90;;;17.60;99.90;;;;;;5085303;28;20028;-71
2023/09/11 00:57:50;;;;;;;25.25;14.80;;;17.50;99.90;;;;;;5086970;28;20059;-71
2023/09/11 01:00:17;;;;;;;28.45;16.10;;;17.50;99.90;;;;;;5086502;28;20353;-71
2023/09/11 01:02:42;;;;;;;27.80;15.10;;;17.40;99.90;;;;;;5082875;28;20028;-71
2023/09/11 01:05:08;;;;;;;23.35;14.93;;;17.40;99.90;;;;;;5088383;28;20027;-70
2023/09/11 01:07:35;;;;;;;24.92;13.90;;;17.40;99.90;;;;;;5086597;28;20032;-72
2023/09/11 01:10:05;;;;;;;27.73;15.25;;;17.40;99.90;;;;;;5086457;28;20032;-72
2023/09/11 01:12:33;;;;;;;25.45;14.73;;;17.40;99.90;;;;;;5084800;28;20747;-71
2023/09/11 01:14:58;;;;;;;26.08;14.45;;;17.40;99.90;;;;;;5085755;28;20028;-72
2023/09/11 01:17:36;;;;;;;23.40;14.60;;;17.30;99.90;;;;;;5087295;28;20081;-71
2023/09/11 01:20:20;;;;;;;22.17;13.55;;;17.30;99.90;;;;;;5087099;28;20040;-72
2023/09/11 01:23:23;;;;;;;24.30;14.57;;;17.30;99.90;;;;;;5085583;28;20043;-71
2023/09/11 01:25:54;;;;;;;22.48;14.75;;;17.30;99.90;;;;;;5081527;28;20029;-71
2023/09/11 01:28:54;;;;;;;24.08;13.88;;;17.30;99.90;;;;;;5083555;28;20429;-71
2023/09/11 01:31:20;;;;;;;23.38;14.80;;;17.30;99.90;;;;;;5085610;28;20040;-72
2023/09/11 01:33:53;;;;;;;23.38;14.80;;;17.20;99.90;;;;;;5086613;28;20036;-71
2023/09/11 01:36:19;;;;;;;22.83;14.18;;;17.10;99.90;;;;;;5087597;28;20039;-71
2023/09/11 01:38:44;;;;;;;25.23;14.35;;;17.10;99.90;;;;;;5086069;28;21615;-72
2023/09/11 01:41:12;;;;;;;23.23;14.05;;;17.20;99.90;;;;;;5085446;28;20090;-71
2023/09/11 01:43:39;;;;;;;21.65;14.18;;;17.20;99.90;;;;;;5083992;28;20507;-71
2023/09/11 01:46:06;;;;;;;26.00;14.68;;;17.10;99.90;;;;;;5085974;28;20051;-71
2023/09/11 01:48:33;;;;;;;21.52;14.85;;;17.10;99.90;;;;;;5087291;28;20064;-71
2023/09/11 01:50:59;;;;;;;26.95;14.35;;;17.10;99.90;;;;;;5084941;28;20024;-71
2023/09/11 01:53:26;;;;;;;24.02;14.35;;;17.00;99.90;;;;;;5086378;28;20040;-71
2023/09/11 01:55:52;;;;;;;23.23;14.60;;;17.00;99.90;;;;;;5083093;28;20031;-71
2023/09/11 01:58:18;;;;;;;25.63;13.98;;;17.00;99.90;;;;;;5085348;28;20047;-71
2023/09/11 02:00:44;;;;;;;23.75;13.18;;;17.00;99.90;;;;;;5084514;28;20036;-71
2023/09/11 02:03:10;;;;;;;28.05;14.25;;;17.00;99.90;;;;;;5084545;28;20048;-72
2023/09/11 02:05:35;;;;;;;22.70;13.95;;;16.90;99.90;;;;;;5089401;28;20035;-71
2023/09/11 02:08:01;;;;;;;22.20;13.65;;;16.90;99.90;;;;;;5082202;28;20024;-71
2023/09/11 02:10:26;;;;;;;24.85;13.98;;;16.90;99.90;;;;;;5089351;28;20381;-72
2023/09/11 02:12:52;;;;;;;23.80;14.82;;;16.90;99.90;;;;;;5090370;28;20476;-72
2023/09/11 02:15:18;;;;;;;23.77;13.50;;;16.80;99.90;;;;;;5087175;28;20072;-72
2023/09/11 02:17:43;;;;;;;20.48;13.15;;;16.80;99.90;;;;;;5072373;28;20413;-72
2023/09/11 02:20:09;;;;;;;20.05;13.52;;;16.80;99.90;;;;;;5083760;28;20036;-72
2023/09/11 02:22:35;;;;;;;22.88;13.88;;;16.70;99.90;;;;;;5088038;28;20044;-72
2023/09/11 02:25:00;;;;;;;23.50;13.05;;;16.70;99.90;;;;;;5085091;28;20042;-72
2023/09/11 02:27:26;;;;;;;20.63;13.48;;;16.70;99.90;;;;;;5085947;28;20119;-72
2023/09/11 02:29:51;;;;;;;25.83;14.23;;;16.60;99.90;;;;;;5084314;28;20032;-72
2023/09/11 02:32:17;;;;;;;23.40;13.65;;;16.60;99.90;;;;;;5090144;28;20465;-71
2023/09/11 02:34:43;;;;;;;21.27;14.63;;;16.50;99.90;;;;;;5078968;28;20040;-72
2023/09/11 02:37:08;;;;;;;28.60;15.15;;;16.60;99.90;;;;;;5090647;28;20024;-72
2023/09/11 02:39:35;;;;;;;25.25;14.57;;;16.50;99.90;;;;;;5092018;28;20514;-71
2023/09/11 02:42:01;;;;;;;23.05;14.93;;;16.50;99.90;;;;;;5090457;28;20106;-72
2023/09/11 02:44:27;;;;;;;24.30;15.18;;;16.50;99.90;;;;;;5089168;28;20028;-70
2023/09/11 02:46:52;;;;;;;23.02;14.88;;;16.40;99.90;;;;;;5083711;28;20064;-72
2023/09/11 02:49:18;;;;;;;22.92;14.23;;;16.40;99.90;;;;;;5091284;28;20094;-71
2023/09/11 02:51:44;;;;;;;24.95;15.25;;;16.30;99.90;;;;;;5080725;28;20418;-72
2023/09/11 02:54:09;;;;;;;23.55;13.80;;;16.30;99.90;;;;;;5079608;28;20584;-71
2023/09/11 02:56:37;;;;;;;20.70;13.73;;;16.30;99.90;;;;;;5088816;28;20024;-72
2023/09/11 02:59:04;;;;;;;23.90;14.20;;;16.30;99.90;;;;;;5084526;28;20213;-71
2023/09/11 03:01:30;;;;;;;24.70;14.00;;;16.30;99.90;;;;;;5086111;28;20032;-72
2023/09/11 03:03:56;;;;;;;23.17;13.93;;;16.30;99.90;;;;;;5087924;28;20038;-72
2023/09/11 03:06:21;;;;;;;24.10;13.70;;;16.20;99.90;;;;;;5088853;28;20046;-72
2023/09/11 03:08:47;;;;;;;21.50;13.50;;;16.20;99.90;;;;;;5089058;28;20032;-72
2023/09/11 03:11:13;;;;;;;21.77;13.15;;;16.20;99.90;;;;;;5086628;28;20047;-72
2023/09/11 03:13:38;;;;;;;21.60;12.63;;;16.20;99.90;;;;;;5084986;28;20036;-72
2023/09/11 03:16:09;;;;;;;21.20;12.80;;;16.20;99.90;;;;;;5086805;28;20654;-72
2023/09/11 03:18:35;;;;;;;21.40;13.35;;;16.20;99.90;;;;;;5090849;28;20127;-71
2023/09/11 03:21:02;;;;;;;18.88;12.30;;;16.10;99.90;;;;;;5087107;28;20032;-70
2023/09/11 03:23:28;;;;;;;20.60;12.63;;;16.10;99.90;;;;;;5090602;28;20452;-70
2023/09/11 03:25:54;;;;;;;19.75;12.77;;;16.10;99.90;;;;;;5087946;28;20099;-71
2023/09/11 03:28:19;;;;;;;20.83;12.20;;;16.10;99.90;;;;;;5089337;28;20035;-72
2023/09/11 03:30:45;;;;;;;19.65;13.43;;;16.10;99.90;;;;;;5090466;28;20349;-70
2023/09/11 03:33:11;;;;;;;24.05;13.90;;;16.00;99.90;;;;;;5089356;28;20093;-71
2023/09/11 03:35:36;;;;;;;23.33;14.02;;;16.00;99.90;;;;;;5063889;28;20028;-71
2023/09/11 03:38:02;;;;;;;24.20;14.45;;;16.00;99.90;;;;;;5086372;28;20044;-71
2023/09/11 03:40:29;;;;;;;21.60;13.43;;;16.00;99.90;;;;;;5089930;28;20036;-72
2023/09/11 03:42:54;;;;;;;22.65;13.70;;;16.00;99.90;;;;;;5087904;28;20123;-72
2023/09/11 03:45:21;;;;;;;23.63;14.40;;;16.00;99.90;;;;;;5090397;28;20107;-72
2023/09/11 03:47:46;;;;;;;23.73;13.32;;;16.00;99.90;;;;;;5087590;28;20058;-72
2023/09/11 03:50:12;;;;;;;28.98;14.27;;;16.00;99.90;;;;;;5089903;28;20040;-72
2023/09/11 03:52:38;;;;;;;20.20;13.57;;;15.90;99.90;;;;;;5089283;28;20043;-72
2023/09/11 03:55:04;;;;;;;23.67;13.10;;;15.80;99.90;;;;;;5088177;28;20469;-71
2023/09/11 03:57:29;;;;;;;21.52;13.45;;;15.70;99.90;;;;;;5082081;28;20055;-71
2023/09/11 03:59:55;;;;;;;23.33;13.50;;;15.60;99.90;;;;;;5082666;28;20067;-73
2023/09/11 04:02:20;;;;;;;21.13;13.68;;;15.60;99.90;;;;;;5076794;28;20036;-71
2023/09/11 04:04:46;;;;;;;22.77;14.05;;;15.60;99.90;;;;;;5085422;28;20114;-72
2023/09/11 04:07:12;;;;;;;24.17;14.35;;;15.60;99.90;;;;;;5089027;28;20032;-73
2023/09/11 04:09:37;;;;;;;23.40;14.13;;;15.70;99.90;;;;;;5087297;28;20476;-72
2023/09/11 04:12:03;;;;;;;22.23;14.25;;;15.70;99.90;;;;;;5083277;28;20043;-73
2023/09/11 04:14:29;;;;;;;23.67;13.40;;;15.80;99.90;;;;;;5086264;28;20068;-71
2023/09/11 04:16:55;;;;;;;22.45;12.90;;;15.70;99.90;;;;;;5079715;28;20353;-70
2023/09/11 04:19:21;;;;;;;21.83;13.68;;;15.70;99.90;;;;;;5089591;28;20035;-71
2023/09/11 04:21:46;;;;;;;24.15;14.43;;;15.70;99.90;;;;;;5083151;28;20024;-75
2023/09/11 04:24:12;;;;;;;26.30;14.10;;;15.70;99.90;;;;;;5085364;28;20036;-71
2023/09/11 04:26:43;;;;;;;24.13;14.40;;;15.70;99.90;;;;;;5086658;28;20028;-71
2023/09/11 04:29:11;;;;;;;22.77;14.15;;;15.70;99.90;;;;;;5084656;28;20655;-73
2023/09/11 04:31:38;;;;;;;22.20;14.45;;;15.60;99.90;;;;;;5079025;28;20028;-70
2023/09/11 04:34:03;;;;;;;24.00;14.48;;;15.60;99.90;;;;;;5080496;28;20400;-71
2023/09/11 04:36:29;;;;;;;23.13;13.77;;;15.70;99.90;;;;;;5084456;28;20016;-70
2023/09/11 04:38:55;;;;;;;22.75;14.30;;;15.70;99.90;;;;;;5083925;28;20039;-72
2023/09/11 04:41:21;;;;;;;24.25;14.27;;;15.70;99.90;;;;;;5085617;28;20130;-71
2023/09/11 04:43:47;;;;;;;23.52;15.38;;;15.80;99.90;;;;;;5088603;28;20101;-72
2023/09/11 04:46:12;;;;;;;23.88;14.00;;;15.80;99.90;;;;;;5082689;28;20034;-69
2023/09/11 04:48:38;;;;;;;21.27;13.90;;;15.70;99.90;;;;;;5085206;28;20139;-70
2023/09/11 04:51:04;;;;;;;23.77;14.55;;;15.70;99.90;;;;;;5082996;28;20036;-71
2023/09/11 04:53:30;;;;;;;21.25;14.15;;;15.60;99.90;;;;;;5085688;28;20047;-71
2023/09/11 04:55:56;;;;;;;26.25;14.18;;;15.50;99.90;;;;;;5085871;28;20024;-71
2023/09/11 04:58:22;;;;;;;23.45;14.00;;;15.50;99.90;;;;;;5083529;28;20051;-71
2023/09/11 05:00:48;;;;;;;20.30;12.57;;;15.40;99.90;;;;;;5083534;28;20062;-71
2023/09/11 05:03:13;;;;;;;23.35;12.52;;;15.40;99.90;;;;;;5080210;28;20071;-72
2023/09/11 05:05:41;;;;;;;20.98;12.55;;;15.40;99.90;;;;;;5088858;28;20024;-72
2023/09/11 05:08:07;;;;;;;21.38;12.80;;;15.40;99.90;;;;;;5088218;28;20024;-73
2023/09/11 05:10:33;;;;;;;22.13;13.23;;;15.40;99.90;;;;;;5106013;28;20036;-72
2023/09/11 05:12:58;;;;;;;22.15;13.77;;;15.50;99.90;;;;;;5083812;28;20036;-72
2023/09/11 05:15:24;;;;;;;24.10;14.23;;;15.50;99.90;;;;;;5085749;28;20027;-72
2023/09/11 05:17:50;;;;;;;21.35;14.00;;;15.60;99.90;;;;;;5088062;28;20072;-71
2023/09/11 05:20:16;;;;;;;21.65;13.18;;;15.60;99.90;;;;;;5087676;28;20036;-71
2023/09/11 05:22:42;;;;;;;20.33;12.90;;;15.70;99.90;;;;;;5088582;28;20541;-72
2023/09/11 05:25:08;;;;;;;25.27;13.90;;;15.70;99.90;;;;;;5087513;28;20043;-71
2023/09/11 05:27:34;;;;;;;20.30;12.65;;;15.70;99.90;;;;;;5086326;28;20115;-71
2023/09/11 05:30:00;;;;;;;20.75;12.70;;;15.60;99.90;;;;;;5087025;28;20158;-70
2023/09/11 05:32:25;;;;;;;24.08;12.90;;;15.50;99.90;;;;;;5088586;28;20491;-72
2023/09/11 05:34:54;;;;;;;21.60;12.70;;;15.60;99.90;;;;;;5087734;28;20035;-73
2023/09/11 05:37:20;;;;;;;21.85;12.40;;;15.60;99.90;;;;;;5086542;28;20071;-71
2023/09/11 05:39:46;;;;;;;21.45;11.80;;;15.60;99.90;;;;;;5092495;28;20060;-72
2023/09/11 05:42:12;;;;;;;20.77;12.07;;;15.60;99.90;;;;;;5089008;28;20032;-70
2023/09/11 05:44:37;;;;;;;20.58;12.70;;;15.70;99.90;;;;;;5090984;28;20032;-71
2023/09/11 05:47:04;;;;;;;21.20;12.43;;;15.80;99.90;;;;;;5087878;28;20060;-72
2023/09/11 05:49:30;;;;;;;23.45;13.45;;;15.90;99.90;;;;;;5090572;28;20036;-70
2023/09/11 05:51:57;;;;;;;22.20;13.68;;;16.00;99.90;;;;;;5090047;28;20032;-71
2023/09/11 05:54:22;;;;;;;23.27;14.25;;;16.10;99.90;;;;;;5092308;28;20055;-73
2023/09/11 05:56:48;;;;;;;18.92;12.40;;;16.10;99.90;;;;;;5089163;28;20118;-71
2023/09/11 05:59:18;;;;;;;23.02;13.52;;;16.10;99.90;;;;;;5091429;28;20032;-73
2023/09/11 06:01:45;;;;;;;22.83;13.18;;;16.00;99.90;;;;;;5090933;28;20106;-70
2023/09/11 06:04:11;;;;;;;19.70;13.40;;;16.10;99.90;;;;;;5090779;28;20032;-71
2023/09/11 06:06:37;;;;;;;22.38;14.35;;;16.10;99.90;;;;;;5091363;28;20165;-73
2023/09/11 06:09:06;;;;;;;21.77;13.60;;;16.20;99.90;;;;;;5072073;28;20043;-70
2023/09/11 06:11:31;;;;;;;23.33;14.48;;;16.30;99.90;;;;;;5090297;28;20187;-75
2023/09/11 06:13:57;;;;;;;21.05;13.95;;;16.30;99.90;;;;;;5091029;28;20643;-76
2023/09/11 06:16:23;;;;;;;20.00;13.23;;;16.50;99.90;;;;;;5089871;28;20063;-75
2023/09/11 06:18:49;;;;;;;24.10;13.82;;;16.60;99.90;;;;;;5091261;28;20028;-74
2023/09/11 06:21:15;;;;;;;20.58;13.45;;;16.60;99.90;;;;;;5090141;28;20653;-74
2023/09/11 06:23:41;;;;;;;30.63;14.73;;;16.70;99.90;;;;;;5090824;28;20032;-73
2023/09/11 06:26:06;;;;;;;21.17;13.38;;;16.70;99.90;;;;;;5088632;28;20056;-76
2023/09/11 06:28:32;;;;;;;20.10;13.43;;;16.70;99.90;;;;;;5089170;28;20028;-76
2023/09/11 06:30:59;;;;;;;20.90;13.60;;;16.70;99.90;;;;;;5091265;28;20059;-76
2023/09/11 06:33:27;;;;;;;21.23;13.75;;;16.80;99.90;;;;;;5091042;28;20043;-77
2023/09/11 06:35:54;;;;;;;24.38;13.43;;;16.90;99.90;;;;;;5091892;28;20024;-77
2023/09/11 06:38:19;;;;;;;21.55;13.35;;;17.10;99.90;;;;;;5091219;28;20036;-75
2023/09/11 06:40:45;;;;;;;20.80;14.05;;;17.20;99.90;;;;;;5090166;28;20035;-77
2023/09/11 06:43:11;;;;;;;26.45;13.90;;;17.30;99.90;;;;;;5083564;28;20047;-75
2023/09/11 06:45:38;;;;;;;26.27;14.90;;;17.40;99.90;;;;;;5088422;28;20114;-78
2023/09/11 06:48:05;;;;;;;23.83;14.38;;;17.60;99.90;;;;;;5090466;28;20063;-76
2023/09/11 06:50:30;;;;;;;22.75;14.95;;;17.70;99.90;;;;;;5090147;28;20028;-75
2023/09/11 06:52:56;;;;;;;23.65;15.05;;;17.80;99.90;;;;;;5091038;28;20028;-74
2023/09/11 06:55:22;;;;;;;26.10;14.90;;;18.00;99.90;;;;;;5091084;28;20028;-77
2023/09/11 06:57:58;;;;;;;22.25;13.93;;;18.10;99.90;;;;;;5088369;28;20032;-76
2023/09/11 07:00:24;;;;;;;27.73;14.73;;;18.20;99.90;;;;;;5090090;28;20086;-76
2023/09/11 07:02:50;;;;;;;22.65;14.55;;;18.30;99.90;;;;;;5090127;28;20036;-76
2023/09/11 07:05:16;;;;;;;23.02;14.82;;;18.40;99.90;;;;;;5090449;28;20066;-76
2023/09/11 07:07:42;;;;;;;26.25;16.05;;;18.50;99.90;;;;;;5090813;28;20465;-74
2023/09/11 07:10:12;;;;;;;30.58;17.70;;;18.70;99.90;;;;;;5094536;28;20078;-74
2023/09/11 07:12:38;;;;;;;34.22;19.83;;;18.80;99.90;;;;;;5088439;28;20036;-73
2023/09/11 07:15:05;;;;;;;29.55;19.25;;;19.00;99.90;;;;;;5082645;28;20052;-71
2023/09/11 07:17:31;;;;;;;29.45;18.08;;;19.20;99.90;;;;;;5090754;28;20055;-75
2023/09/11 07:19:57;;;;;;;27.50;18.17;;;19.40;99.90;;;;;;5088850;28;20467;-74
2023/09/11 07:22:22;;;;;;;32.10;19.95;;;19.50;99.90;;;;;;5088868;28;20050;-75
2023/09/11 07:24:48;;;;;;;36.35;20.83;;;19.70;99.90;;;;;;5087250;28;20452;-72
2023/09/11 07:27:14;;;;;;;28.73;18.17;;;19.70;99.90;;;;;;5088434;28;20028;-74
2023/09/11 07:29:40;;;;;;;33.95;18.35;;;19.90;99.90;;;;;;5089448;28;20032;-76
2023/09/11 07:32:06;;;;;;;29.75;18.48;;;20.00;99.90;;;;;;5081823;28;20450;-74
2023/09/11 07:34:32;;;;;;;33.58;19.30;;;20.10;99.90;;;;;;5083326;28;20043;-74
2023/09/11 07:36:58;;;;;;;33.00;18.48;;;20.30;99.90;;;;;;5084072;28;20032;-74
2023/09/11 07:39:23;;;;;;;34.28;19.33;;;20.40;99.90;;;;;;5089333;28;20384;-71
2023/09/11 07:41:49;;;;;;;29.80;19.08;;;20.60;99.90;;;;;;5088312;28;20422;-71
2023/09/11 07:44:15;;;;;;;25.27;17.40;;;20.60;99.90;;;;;;5088547;28;20415;-71
2023/09/11 07:46:41;;;;;;;32.90;19.25;;;20.80;99.90;;;;;;5083566;28;20111;-72
2023/09/11 07:49:06;;;;;;;30.15;19.08;;;20.80;99.90;;;;;;5082924;28;20048;-72
2023/09/11 07:51:32;;;;;;;33.13;19.50;;;21.00;99.90;;;;;;5085988;28;20654;-70
2023/09/11 07:53:59;;;;;;;30.05;18.98;;;21.20;99.90;;;;;;5086966;28;20472;-71
2023/09/11 07:56:25;;;;;;;29.85;19.98;;;21.30;99.90;;;;;;5088736;28;20031;-71
2023/09/11 07:58:51;;;;;;;28.20;19.20;;;21.50;99.90;;;;;;5087609;28;20097;-71
2023/09/11 08:01:26;;;;;;;32.63;18.25;;;21.70;99.90;;;;;;5087850;28;20114;-70
2023/09/11 08:03:52;;;;;;;27.52;18.13;;;21.80;99.90;;;;;;5086430;28;20480;-70
2023/09/11 08:06:21;;;;;;;30.00;18.05;;;21.90;99.90;;;;;;5085625;28;20097;-70
2023/09/11 08:08:46;;;;;;;31.17;19.00;;;22.10;99.90;;;;;;5089134;28;20135;-70
2023/09/11 08:11:15;;;;;;;30.33;18.40;;;22.20;99.90;;;;;;5085404;28;20631;-70
2023/09/11 08:13:40;;;;;;;34.58;19.50;;;22.30;99.90;;;;;;5087971;28;20051;-71
2023/09/11 08:16:06;;;;;;;28.08;18.55;;;22.50;99.90;;;;;;5086920;28;20063;-70
2023/09/11 08:18:32;;;;;;;33.17;18.85;;;22.70;99.90;;;;;;5087085;28;20036;-70
2023/09/11 08:20:58;;;;;;;32.97;19.05;;;22.80;99.90;;;;;;5088205;28;20028;-74
2023/09/11 08:23:23;;;;;;;28.80;17.70;;;23.00;99.90;;;;;;5087892;28;20446;-71
2023/09/11 08:25:49;;;;;;;27.35;16.55;;;23.10;99.90;;;;;;5086849;28;20043;-71
2023/09/11 08:28:14;;;;;;;28.25;17.02;;;23.30;99.90;;;;;;5085786;28;20055;-70
2023/09/11 08:30:40;;;;;;;23.80;15.70;;;23.40;99.90;;;;;;5088738;28;20483;-69
2023/09/11 08:33:06;;;;;;;23.88;15.18;;;23.50;99.90;;;;;;5095291;28;20028;-70
2023/09/11 08:35:31;;;;;;;28.42;16.00;;;23.70;99.90;;;;;;5092535;28;20031;-69
2023/09/11 08:37:57;;;;;;;25.63;16.35;;;23.60;99.90;;;;;;5089455;28;20035;-70
2023/09/11 08:40:28;;;;;;;26.23;15.82;;;23.60;99.90;;;;;;5086506;28;20113;-70
2023/09/11 08:42:54;;;;;;;26.70;16.10;;;23.80;99.90;;;;;;5088218;28;20571;-70
2023/09/11 08:45:20;;;;;;;25.00;16.17;;;23.80;99.90;;;;;;5087192;28;20051;-71
2023/09/11 08:47:48;;;;;;;25.95;15.60;;;23.90;99.90;;;;;;5085156;28;20492;-71
2023/09/11 08:50:15;;;;;;;23.77;14.73;;;24.00;99.90;;;;;;5081730;28;20647;-70
2023/09/11 08:52:41;;;;;;;27.25;16.00;;;24.20;99.90;;;;;;5086919;28;20028;-70
2023/09/11 08:55:11;;;;;;;28.90;15.38;;;24.20;99.90;;;;;;5088320;28;20109;-72
2023/09/11 08:57:38;;;;;;;;;;;24.30;99.90;;;;;;5067421;28;20169;-71
2023/09/11 09:00:11;;;;;;;24.02;13.93;;;24.40;99.90;;;;;;5085228;28;19911;-71
2023/09/11 09:02:37;;;;;;;23.92;13.85;;;24.60;99.90;;;;;;5089162;28;20093;-73
2023/09/11 09:05:05;;;;;;;27.23;13.32;;;24.70;99.90;;;;;;5088227;28;20380;-74
2023/09/11 09:07:32;;;;;;;21.95;14.02;;;24.80;99.90;;;;;;5088841;28;20081;-73
2023/09/11 09:09:58;;;;;;;23.70;14.45;;;24.80;99.90;;;;;;5087215;28;20043;-71
2023/09/11 09:12:26;;;;;;;24.80;14.75;;;24.80;99.90;;;;;;5092216;28;20035;-71
2023/09/11 09:14:52;;;;;;;22.63;14.73;;;25.00;99.90;;;;;;5091098;28;20023;-74
2023/09/11 09:17:17;;;;;;;25.48;14.63;;;25.00;99.90;;;;;;5085435;28;20561;-72
2023/09/11 09:19:43;;;;;;;24.33;14.52;;;25.10;99.90;;;;;;5085311;28;20032;-73
2023/09/11 09:22:12;;;;;;;22.30;14.27;;;25.10;99.90;;;;;;5085913;28;20043;-72
2023/09/11 09:24:47;;;;;;;21.48;13.80;;;25.10;99.90;;;;;;5089057;28;20407;-72
2023/09/11 09:27:13;;;;;;;24.17;13.55;;;25.30;99.90;;;;;;5086562;28;20032;-72
2023/09/11 09:29:39;;;;;;;20.90;12.90;;;25.40;99.90;;;;;;5092610;28;20084;-71
2023/09/11 09:32:07;;;;;;;24.50;13.57;;;25.60;99.90;;;;;;5108936;28;20031;-72
2023/09/11 09:34:34;;;;;;;25.55;12.60;;;25.80;99.90;;;;;;5076669;28;20377;-71
2023/09/11 09:37:00;;;;;;;19.08;12.05;;;25.90;99.90;;;;;;5088703;28;20431;-73
2023/09/11 09:39:28;;;;;;;20.55;13.13;;;25.90;99.90;;;;;;5086644;28;20028;-71
2023/09/11 09:41:57;;;;;;;18.52;12.45;;;26.00;99.90;;;;;;5086115;28;20036;-71
2023/09/11 09:44:34;;;;;;;18.90;12.05;;;26.00;99.90;;;;;;5086652;28;20423;-72
2023/09/11 09:47:16;;;;;;;18.30;12.48;;;26.20;99.90;;;;;;5077870;28;20040;-71
2023/09/11 09:49:44;;;;;;;19.65;12.85;;;26.40;99.90;;;;;;5087655;28;20027;-71
2023/09/11 09:52:11;;;;;;;19.25;12.02;;;26.40;99.90;;;;;;5086785;28;20040;-71
2023/09/11 09:54:46;;;;;;;18.45;12.07;;;26.40;99.90;;;;;;5087500;28;20611;-74
2023/09/11 09:57:16;;;;;;;22.20;12.25;;;26.50;99.90;;;;;;5086866;28;20890;-74
2023/09/11 09:59:52;;;;;;;16.83;10.82;;;26.60;99.90;;;;;;5092764;28;20036;-72
2023/09/11 10:02:34;;;;;;;18.55;11.02;;;26.80;99.90;;;;;;5083697;28;20052;-72
2023/09/11 10:05:05;;;;;;;18.05;11.10;;;26.90;99.90;;;;;;5079514;28;20032;-71
2023/09/11 10:07:41;;;;;;;19.30;11.35;;;26.90;99.90;;;;;;5071727;28;20392;-71
2023/09/11 10:10:26;;;;;;;17.10;11.70;;;26.90;99.90;;;;;;5086368;28;20035;-71
2023/09/11 10:13:09;;;;;;;25.33;11.63;;;27.10;99.90;;;;;;5079556;28;20036;-71
2023/09/11 10:15:37;;;;;;;24.92;11.70;;;27.20;99.90;;;;;;5084851;28;20078;-71
2023/09/11 10:18:04;;;;;;;17.80;11.18;;;27.30;99.90;;;;;;5084866;28;20086;-71
2023/09/11 10:20:31;;;;;;;17.63;11.32;;;27.60;99.90;;;;;;5086876;28;20141;-70
2023/09/11 10:22:59;;;;;;;20.55;11.38;;;27.70;99.90;;;;;;5084862;28;20062;-71
2023/09/11 10:25:33;;;;;;;20.50;10.77;;;27.70;99.90;;;;;;5069651;28;20086;-70
2023/09/11 10:28:05;;;;;;;16.08;10.35;;;27.70;99.90;;;;;;5100961;28;20059;-71
2023/09/11 10:30:56;;;;;;;20.00;10.23;;;27.70;99.90;;;;;;5089320;28;20068;-70
2023/09/11 10:33:26;;;;;;;20.02;10.02;;;27.60;99.90;;;;;;5088662;28;20051;-75
2023/09/11 10:35:56;;;;;;;14.47;9.33;;;27.70;99.90;;;;;;5087336;28;20036;-72
2023/09/11 10:38:22;;;;;;;;;;;27.80;99.90;;;;;;5085974;28;20737;-71
2023/09/11 10:40:49;;;;;;;24.73;10.27;;;27.80;99.90;;;;;;5091813;28;19908;-71
2023/09/11 10:43:15;;;;;;;15.82;9.05;;;27.80;99.90;;;;;;5090584;28;20036;-72
2023/09/11 10:45:41;;;;;;;18.05;9.13;;;27.80;99.90;;;;;;5091322;28;20024;-72
2023/09/11 10:48:26;;;;;;;20.92;9.38;;;28.00;99.90;;;;;;5088334;28;20101;-73
2023/09/11 10:50:52;;;;;;;17.85;8.40;;;28.20;99.90;;;;;;5091008;28;20370;-72
2023/09/11 10:53:17;;;;;;;15.93;8.25;;;28.20;99.90;;;;;;5089420;28;20157;-71
2023/09/11 10:55:43;;;;;;;13.52;8.70;;;28.20;99.90;;;;;;5091448;28;20464;-72
2023/09/11 10:58:09;;;;;;;19.75;9.13;;;28.30;99.90;;;;;;5089346;28;20464;-72
2023/09/11 11:00:38;;;;;;;13.40;8.38;;;28.30;99.90;;;;;;5063850;28;20967;-72
2023/09/11 11:03:05;;;;;;;20.90;8.75;;;28.40;99.90;;;;;;5091150;28;20046;-73
2023/09/11 11:05:32;;;;;;;14.15;8.20;;;28.50;99.90;;;;;;5089547;28;20024;-75
2023/09/11 11:07:58;;;;;;;17.40;8.27;;;28.60;99.90;;;;;;5093288;28;20040;-71
2023/09/11 11:10:25;;;;;;;17.85;8.60;;;28.60;99.90;;;;;;5086884;28;20028;-75
2023/09/11 11:13:07;;;;;;;16.20;8.73;;;28.70;99.90;;;;;;5088727;28;20046;-71
2023/09/11 11:15:34;;;;;;;13.05;8.90;;;28.60;99.90;;;;;;5083143;28;20121;-69
2023/09/11 11:18:06;;;;;;;18.80;8.95;;;28.70;99.90;;;;;;5089740;28;20036;-71
2023/09/11 11:20:33;;;;;;;16.38;8.25;;;28.70;99.90;;;;;;5090167;28;20062;-74
2023/09/11 11:23:09;;;;;;;19.90;8.50;;;28.90;99.90;;;;;;5091947;28;20040;-73
2023/09/11 11:25:35;;;;;;;16.05;8.40;;;28.90;98.70;;;;;;5090045;28;20754;-73
2023/09/11 11:28:17;;;;;;;16.90;9.02;;;29.00;99.30;;;;;;5089945;28;20095;-74
2023/09/11 11:30:44;;;;;;;20.15;9.00;;;29.10;99.00;;;;;;5089674;28;20035;-72
2023/09/11 11:33:17;;;;;;;17.77;9.15;;;29.30;99.90;;;;;;5088303;28;20443;-74
2023/09/11 11:35:45;;;;;;;16.33;8.40;;;29.30;98.00;;;;;;5089828;28;20028;-71
2023/09/11 11:38:17;;;;;;;16.52;8.38;;;29.30;99.40;;;;;;5086495;28;20464;-71
2023/09/11 11:40:44;;;;;;;18.75;7.65;;;29.20;97.20;;;;;;5086255;28;20133;-70
2023/09/11 11:43:11;;;;;;;19.88;7.93;;;29.10;96.70;;;;;;5084917;28;20046;-70
2023/09/11 11:45:47;;;;;;;16.60;7.65;;;29.00;95.70;;;;;;5089952;28;20032;-71
2023/09/11 11:48:16;;;;;;;20.10;7.65;;;29.00;96.10;;;;;;5070911;28;20048;-73
2023/09/11 11:50:46;;;;;;;18.92;7.68;;;29.20;96.40;;;;;;5089302;28;20028;-71
2023/09/11 11:53:19;;;;;;;;;;;29.50;95.40;;;;;;5071132;28;20036;-69
2023/09/11 11:55:45;;;;;;;17.35;7.32;;;29.40;93.40;;;;;;5090319;28;19962;-70
2023/09/11 11:58:15;;;;;;;23.83;7.25;;;29.40;94.60;;;;;;5069823;28;20031;-71
2023/09/11 12:00:54;;;;;;;15.55;8.25;;;29.60;93.60;;;;;;5087807;28;20028;-73
2023/09/11 12:03:19;;;;;;;16.55;7.00;;;29.70;93.80;;;;;;5088429;28;20170;-70
2023/09/11 12:05:45;;;;;;;18.63;7.40;;;29.70;92.30;;;;;;5088879;28;20115;-70
2023/09/11 12:08:13;;;;;;;22.25;7.05;;;29.70;91.70;;;;;;5088896;28;20020;-70
2023/09/11 12:10:48;;;;;;;19.20;7.32;;;29.70;90.20;;;;;;5088854;28;20460;-70
2023/09/11 12:13:14;;;;;;;19.40;7.15;;;29.60;90.30;;;;;;5081964;28;20369;-72
2023/09/11 12:15:40;;;;;;;20.00;6.63;;;29.60;90.00;;;;;;5087415;28;20503;-73
2023/09/11 12:18:06;;;;;;;26.30;7.32;;;29.60;92.00;;;;;;5087375;28;20109;-70
2023/09/11 12:20:31;;;;;;;21.80;6.97;;;29.60;89.70;;;;;;5085037;28;20032;-71
2023/09/11 12:23:01;;;;;;;18.65;6.97;;;29.70;91.70;;;;;;5085543;28;20055;-71
2023/09/11 12:25:27;;;;;;;20.40;7.05;;;29.80;91.00;;;;;;5086119;28;20038;-71
2023/09/11 12:27:54;;;;;;;18.63;6.70;;;29.90;91.00;;;;;;5088941;28;20032;-71
2023/09/11 12:30:20;;;;;;;17.10;7.13;;;29.90;90.80;;;;;;5088172;28;20032;-72